KLYH Airport Information

Runway Information
Runway 04 Length 5799 ft width 150 ft
Elevation 899 ft Threshold 0 ft Heading 28
Runway 22 Length 5799 ft Width 150 ft
Elevation 938 ft Threshold 0 ft Heading 208
Runway 17 Length 3387 ft width 75 ft
Elevation 918 ft Threshold 0 ft Heading 161
Runway 35 Length 3387 ft Width 75 ft
Elevation 918 ft Threshold 0 ft Heading 341
Airport Frequencies
Type A/D Name ROANOKE AP Frequency 125.47 MHZ
Type ATIS Name ATIS Frequency 119.8 MHZ
Type CTAF Name CTAF Frequency 127.65 MHZ
Type GND Name GND Frequency 121.9 MHZ
Type RDO Name LEESBURG R Frequency 109.2 MHZ
Type TWR Name TWR Frequency 127.65 MHZ
Type UNIC Name UNICOM Frequency 122.95 MHZ
Airport Navaids
Type NDB Name Bojar Frequency 385 KHZ
Type VORTAC Name Lynchburg Frequency 109200 KHZ
Airport Weather Information & NOTAM
ADDS - METARS form results

(1121 UTC 20 April 2019)
Data provider http://aviationweather.gov/metar/data/
 
METAR text: KLYH 201109Z 20009KT 10SM -RA FEW016 SCT026 12/09 A2959 RMK AO2 P0000 T01170089
Conditions at: KLYH (LYNCHBURG , VA, US) observed 1109 UTC 20 April 2019
Temperature: 11.7°C (53°F)
Dewpoint: 8.9°C (48°F) [RH = 83%]
Pressure (altimeter): 29.59 inches Hg (1002.1 mb)
Winds: from the SSW (200 degrees) at 10 MPH (9 knots; 4.6 m/s)
Visibility: 10 or more miles (16+ km)
Ceiling: at least 12,000 feet AGL
Clouds: few clouds at 1600 feet AGL
scattered clouds at 2600 feet AGL
Weather: -RA  (light rain)

METAR text: KLYH 201054Z 19008KT 10SM -RA SCT018 OVC026 12/10 A2958 RMK AO2 RAB49 SLP012 P0000 T01170100
Conditions at: KLYH (LYNCHBURG , VA, US) observed 1054 UTC 20 April 2019
Temperature: 11.7°C (53°F)
Dewpoint: 10.0°C (50°F) [RH = 89%]
Pressure (altimeter): 29.58 inches Hg (1001.8 mb)
[Sea-level pressure: 1001.2 mb]
Winds: from the S (190 degrees) at 9 MPH (8 knots; 4.1 m/s)
Visibility: 10 or more miles (16+ km)
Ceiling: 2600 feet AGL
Clouds: scattered clouds at 1800 feet AGL
overcast cloud deck at 2600 feet AGL
Weather: -RA  (light rain)

METAR text: KLYH 201030Z 22005KT 10SM FEW016 BKN023 BKN027 12/11 A2957 RMK AO2 T01220106
Conditions at: KLYH (LYNCHBURG , VA, US) observed 1030 UTC 20 April 2019
Temperature: 12.2°C (54°F)
Dewpoint: 10.6°C (51°F) [RH = 90%]
Pressure (altimeter): 29.57 inches Hg (1001.4 mb)
Winds: from the SW (220 degrees) at 6 MPH (5 knots; 2.6 m/s)
Visibility: 10 or more miles (16+ km)
Ceiling: 2300 feet AGL
Clouds: few clouds at 1600 feet AGL
broken clouds at 2300 feet AGL
broken clouds at 2700 feet AGL
Weather: no significant weather observed at this time

Forecast for: KLYH (LYNCHBURG , VA, US)
Text: KLYH 200710Z 2007/2106 21011KT P6SM -RA FEW015 BKN035
Forecast period: 0700 to 1000 UTC 20 April 2019
Forecast type: FROM: standard forecast or significant change
Winds: from the SSW (210 degrees) at 13 MPH (11 knots; 5.7 m/s)
Visibility: 6 or more miles 10+ km)
Ceiling: 3500 feet AGL
Clouds: few clouds at 1500 feet AGL
broken clouds at 3500 feet AGL
Weather: -RA  (light rain)
Text: FM201000 20010G18KT P6SM BKN035
Forecast period: 1000 to 1900 UTC 20 April 2019
Forecast type: FROM: standard forecast or significant change
Winds: from the SSW (200 degrees) at 12 MPH (10 knots; 5.1 m/s)
gusting to 21 MPH (18 knots; 9.3 m/s)
Visibility: 6 or more miles 10+ km)
Ceiling: 3500 feet AGL
Clouds: broken clouds at 3500 feet AGL
Weather: no significant weather forecast for this period
Text: FM201900 20012G21KT P6SM BKN030
Forecast period: 1900 to 2100 UTC 20 April 2019
Forecast type: FROM: standard forecast or significant change
Winds: from the SSW (200 degrees) at 14 MPH (12 knots; 6.2 m/s)
gusting to 24 MPH (21 knots; 10.8 m/s)
Visibility: 6 or more miles 10+ km)
Ceiling: 3000 feet AGL
Clouds: broken clouds at 3000 feet AGL
Weather: no significant weather forecast for this period
Text: FM202100 21009KT P6SM OVC035
Forecast period: 2100 UTC 20 April 2019 to 0600 UTC 21 April 2019
Forecast type: FROM: standard forecast or significant change
Winds: from the SSW (210 degrees) at 10 MPH (9 knots; 4.6 m/s)
Visibility: 6 or more miles 10+ km)
Ceiling: 3500 feet AGL
Clouds: overcast cloud deck at 3500 feet AGL
Weather: no significant weather forecast for this period